Time;durP1;ratioP1;P1;durP2;ratioP2;P2;SDS_P1;SDS_P2;PMS_P1;PMS_P2;Temp;Humidity;BMP_temperature;BMP_pressure;BME280_temperature;BME280_humidity;BME280_pressure;Samples;Min_cycle;Max_cycle;Signal;HPM_P1;HPM_P2
2022/05/03 00:01:07;;;;;;;8.00;3.85;;;13.90;69.80;;;;;;5123830;27;45763;-82
2022/05/03 00:03:44;;;;;;;7.45;4.03;;;13.90;69.60;;;;;;5125683;27;45360;-81
2022/05/03 00:06:24;;;;;;;5.25;3.42;;;13.80;70.10;;;;;;5122731;27;45248;-83
2022/05/03 00:08:55;;;;;;;6.05;4.05;;;13.80;69.50;;;;;;5128041;27;45613;-82
2022/05/03 00:11:30;;;;;;;5.25;3.63;;;13.80;70.70;;;;;;5114998;27;47257;-82
2022/05/03 00:14:06;;;;;;;6.80;4.10;;;13.80;69.30;;;;;;5118879;27;45245;-82
2022/05/03 00:16:35;;;;;;;10.93;4.32;;;13.80;68.90;;;;;;5125838;27;45676;-82
2022/05/03 00:19:06;;;;;;;4.97;3.30;;;13.70;69.60;;;;;;5123814;27;45492;-82
2022/05/03 00:21:36;;;;;;;4.72;3.63;;;13.70;70.20;;;;;;5127490;27;46075;-81
2022/05/03 00:24:03;;;;;;;7.50;4.05;;;13.70;69.60;;;;;;5121848;27;45487;-82
2022/05/03 00:26:31;;;;;;;6.72;3.58;;;13.70;70.40;;;;;;5123304;27;45309;-82
2022/05/03 00:28:59;;;;;;;5.28;3.58;;;13.70;70.10;;;;;;5120757;27;45604;-82
2022/05/03 00:31:27;;;;;;;6.80;3.50;;;13.60;70.60;;;;;;5127178;27;47031;-81
2022/05/03 00:33:55;;;;;;;5.38;3.80;;;13.70;70.20;;;;;;5123879;27;45340;-81
2022/05/03 00:36:22;;;;;;;9.25;3.55;;;13.70;69.10;;;;;;5127770;27;45129;-81
2022/05/03 00:38:51;;;;;;;8.30;4.00;;;13.60;70.50;;;;;;5118769;27;46024;-81
2022/05/03 00:41:26;;;;;;;7.93;3.70;;;13.70;69.30;;;;;;5126064;27;47136;-81
2022/05/03 00:43:59;;;;;;;6.28;3.40;;;13.60;69.70;;;;;;5126478;27;45377;-81
2022/05/03 00:46:31;;;;;;;7.55;3.50;;;13.70;69.50;;;;;;5124172;27;45455;-81
2022/05/03 00:49:13;;;;;;;9.48;3.83;;;13.70;70.80;;;;;;5126257;27;45218;-81
2022/05/03 00:51:47;;;;;;;6.88;3.70;;;13.60;69.50;;;;;;5120922;27;45450;-81
2022/05/03 00:54:22;;;;;;;8.93;3.58;;;13.60;70.60;;;;;;5121630;27;45278;-81
2022/05/03 00:57:06;;;;;;;8.00;3.58;;;13.50;70.90;;;;;;5117502;27;45757;-81
2022/05/03 00:59:47;;;;;;;10.75;4.20;;;13.50;70.70;;;;;;5123590;27;45367;-81
2022/05/03 01:02:15;;;;;;;4.90;3.38;;;13.50;71.50;;;;;;5124538;27;45637;-82
2022/05/03 01:04:53;;;;;;;7.70;3.40;;;13.40;73.50;;;;;;5122812;27;45434;-81
2022/05/03 01:07:28;;;;;;;6.28;3.80;;;13.40;71.60;;;;;;5124092;27;45367;-81
2022/05/03 01:10:05;;;;;;;6.82;3.47;;;13.40;72.50;;;;;;5126795;27;45580;-81
2022/05/03 01:12:52;;;;;;;5.47;3.53;;;13.40;72.50;;;;;;5127017;27;47943;-81
2022/05/03 01:15:21;;;;;;;5.35;3.60;;;13.30;72.40;;;;;;5128147;27;45351;-82
2022/05/03 01:17:59;;;;;;;9.65;4.60;;;13.30;72.40;;;;;;5124710;27;45324;-81
2022/05/03 01:20:34;;;;;;;7.72;3.75;;;13.30;72.10;;;;;;5125491;27;45334;-82
2022/05/03 01:23:38;;;;;;;5.20;3.45;;;13.30;72.80;;;;;;5125116;27;45539;-82
2022/05/03 01:26:34;;;;;;;6.55;3.58;;;13.20;73.30;;;;;;5126870;27;45564;-81
2022/05/03 01:29:22;;;;;;;5.43;3.50;;;13.30;74.90;;;;;;5122609;27;45135;-82
2022/05/03 01:31:54;;;;;;;8.30;4.55;;;13.40;74.40;;;;;;5125246;27;45222;-81
2022/05/03 01:34:25;;;;;;;6.55;4.10;;;13.30;74.30;;;;;;5117869;27;45227;-81
2022/05/03 01:37:05;;;;;;;5.63;3.53;;;13.30;73.50;;;;;;5127818;27;45183;-82
2022/05/03 01:39:45;;;;;;;6.85;3.58;;;13.20;74.70;;;;;;5128209;27;45536;-82
2022/05/03 01:42:25;;;;;;;8.20;4.10;;;13.20;75.30;;;;;;5125358;27;45613;-82
2022/05/03 01:45:02;;;;;;;9.68;4.03;;;13.20;74.30;;;;;;5128379;27;45612;-82
2022/05/03 01:47:44;;;;;;;6.18;3.65;;;13.10;75.10;;;;;;5118436;27;45217;-81
2022/05/03 01:50:30;;;;;;;6.40;3.78;;;13.10;75.60;;;;;;5116694;27;45385;-82
2022/05/03 01:53:15;;;;;;;6.25;3.75;;;13.00;77.60;;;;;;5125692;27;45412;-82
2022/05/03 01:56:04;;;;;;;6.20;3.42;;;13.00;76.10;;;;;;5124958;27;46188;-81
2022/05/03 01:58:41;;;;;;;11.23;4.10;;;13.10;76.30;;;;;;5112526;27;45627;-82
2022/05/03 02:01:18;;;;;;;5.55;3.55;;;13.10;75.60;;;;;;5123687;27;45217;-82
2022/05/03 02:03:49;;;;;;;6.72;3.85;;;13.20;76.80;;;;;;5122853;27;45296;-81
2022/05/03 02:06:20;;;;;;;6.47;3.58;;;13.10;76.20;;;;;;5123726;27;46306;-82
2022/05/03 02:09:05;;;;;;;5.47;3.22;;;13.00;78.00;;;;;;5128234;27;45187;-81
2022/05/03 02:11:57;;;;;;;5.70;3.50;;;13.10;77.30;;;;;;5124263;27;45238;-82
2022/05/03 02:14:45;;;;;;;5.97;3.65;;;13.10;78.10;;;;;;5125568;27;45220;-82
2022/05/03 02:17:31;;;;;;;6.82;3.70;;;13.10;78.50;;;;;;5128231;27;46629;-82
2022/05/03 02:20:12;;;;;;;7.15;3.80;;;13.10;78.60;;;;;;5124560;27;45221;-82
2022/05/03 02:22:55;;;;;;;7.15;3.78;;;13.00;79.30;;;;;;5118875;27;45213;-82
2022/05/03 02:25:32;;;;;;;5.78;3.58;;;13.00;78.30;;;;;;5126554;27;45550;-82
2022/05/03 02:28:04;;;;;;;6.75;3.70;;;13.00;79.30;;;;;;5128211;27;46164;-82
2022/05/03 02:30:33;;;;;;;8.00;3.70;;;12.90;78.50;;;;;;5124646;27;45736;-82
2022/05/03 02:33:05;;;;;;;7.22;3.88;;;12.90;79.30;;;;;;5122576;27;45365;-82
2022/05/03 02:35:34;;;;;;;11.75;3.70;;;12.90;78.50;;;;;;5126539;27;45602;-82
2022/05/03 02:38:05;;;;;;;6.45;3.70;;;12.80;78.30;;;;;;5136590;27;47411;-82
2022/05/03 02:40:33;;;;;;;6.18;3.67;;;12.70;79.10;;;;;;5126504;27;45334;-82
2022/05/03 02:43:00;;;;;;;8.20;3.78;;;12.70;78.90;;;;;;5129251;27;45236;-81
2022/05/03 02:45:30;;;;;;;6.95;3.30;;;12.70;80.00;;;;;;5125724;27;45341;-82
2022/05/03 02:48:09;;;;;;;8.95;3.80;;;12.80;78.80;;;;;;5124422;27;46066;-82
2022/05/03 02:50:43;;;;;;;7.25;3.67;;;12.70;80.00;;;;;;5126531;27;45416;-82
2022/05/03 02:53:22;;;;;;;6.75;3.70;;;12.70;78.70;;;;;;5126264;27;45449;-82
2022/05/03 02:55:53;;;;;;;6.88;3.53;;;12.80;78.60;;;;;;5125127;27;45238;-82
2022/05/03 02:58:37;;;;;;;9.65;4.50;;;12.60;77.80;;;;;;5123419;27;45396;-82
2022/05/03 03:04:10;;;;;;;6.53;3.38;;;12.60;80.20;;;;;;5126575;27;45209;-82
2022/05/03 03:06:41;;;;;;;8.32;3.60;;;12.60;77.90;;;;;;5122900;27;45230;-82
2022/05/03 03:09:09;;;;;;;8.07;4.47;;;12.60;79.00;;;;;;5124881;27;47339;-83
2022/05/03 03:11:52;;;;;;;7.22;4.10;;;12.60;79.70;;;;;;5129238;27;45235;-82
2022/05/03 03:14:31;;;;;;;6.03;3.88;;;12.60;79.60;;;;;;5119597;27;45285;-82
2022/05/03 03:17:05;;;;;;;6.85;4.10;;;12.60;79.10;;;;;;5125540;27;45591;-82
2022/05/03 03:20:07;;;;;;;7.55;3.60;;;12.60;79.20;;;;;;5118890;27;45220;-82
2022/05/03 03:22:39;;;;;;;7.20;3.70;;;12.60;79.60;;;;;;5118870;27;45239;-82
2022/05/03 03:25:08;;;;;;;10.48;4.20;;;12.50;82.10;;;;;;5122970;27;45299;-81
2022/05/03 03:27:37;;;;;;;7.13;3.75;;;12.40;80.30;;;;;;5128172;27;45401;-82
2022/05/03 03:30:06;;;;;;;7.65;3.72;;;12.40;80.80;;;;;;5122290;27;47206;-82
2022/05/03 03:32:35;;;;;;;10.10;4.32;;;12.50;80.60;;;;;;5133744;27;45163;-81
2022/05/03 03:35:03;;;;;;;4.28;3.10;;;12.50;80.00;;;;;;5123583;27;45424;-83
2022/05/03 03:37:33;;;;;;;5.88;3.70;;;12.40;80.40;;;;;;5126246;27;45451;-82
2022/05/03 03:40:00;;;;;;;7.72;3.92;;;12.50;79.90;;;;;;5122382;27;45467;-82
2022/05/03 03:42:28;;;;;;;8.23;4.13;;;12.40;78.10;;;;;;5125860;27;45294;-82
2022/05/03 03:44:59;;;;;;;6.35;4.03;;;12.40;79.10;;;;;;5126885;27;45249;-82
2022/05/03 03:47:26;;;;;;;5.97;3.88;;;12.30;79.30;;;;;;5127369;27;45633;-82
2022/05/03 03:49:53;;;;;;;5.80;3.88;;;12.30;79.40;;;;;;5123057;27;46569;-82
2022/05/03 03:52:21;;;;;;;7.13;3.70;;;12.20;79.70;;;;;;5125640;27;45361;-82
2022/05/03 03:54:50;;;;;;;7.25;3.97;;;12.20;78.90;;;;;;5128389;27;45270;-82
2022/05/03 03:57:20;;;;;;;8.05;4.32;;;12.30;79.40;;;;;;5126299;27;45417;-82
2022/05/03 03:59:47;;;;;;;7.05;4.15;;;12.20;79.60;;;;;;5119198;27;46168;-82
2022/05/03 04:02:13;;;;;;;6.47;3.85;;;12.20;80.30;;;;;;5119780;27;45372;-82
2022/05/03 04:04:43;;;;;;;7.85;3.72;;;12.20;79.20;;;;;;5127504;27;45244;-82
2022/05/03 04:07:10;;;;;;;7.35;4.80;;;12.10;78.50;;;;;;5126937;27;45364;-82
2022/05/03 04:09:37;;;;;;;9.63;4.60;;;11.90;78.10;;;;;;5125362;27;47095;-82
2022/05/03 04:12:06;;;;;;;5.35;3.65;;;11.80;78.60;;;;;;5111438;27;45646;-81
2022/05/03 04:14:33;;;;;;;8.40;4.30;;;11.70;79.20;;;;;;5123075;27;45296;-81
2022/05/03 04:17:00;;;;;;;6.75;3.80;;;11.50;79.50;;;;;;5128698;27;45350;-82
2022/05/03 04:19:27;;;;;;;8.13;3.85;;;11.50;79.70;;;;;;5120060;27;45506;-82
2022/05/03 04:21:54;;;;;;;4.32;3.08;;;11.50;80.00;;;;;;5128621;27;45518;-82
2022/05/03 04:24:21;;;;;;;4.18;3.15;;;11.70;81.30;;;;;;5122712;27;45281;-82
2022/05/03 04:26:48;;;;;;;6.65;3.90;;;11.80;79.90;;;;;;5125234;27;45273;-82
2022/05/03 04:29:16;;;;;;;6.60;4.20;;;11.70;81.00;;;;;;5123975;27;47011;-82
2022/05/03 04:31:43;;;;;;;8.52;4.07;;;11.70;80.20;;;;;;5122339;27;45546;-82
2022/05/03 04:34:10;;;;;;;7.68;4.00;;;11.70;80.00;;;;;;5126766;27;45571;-82
2022/05/03 04:36:36;;;;;;;9.65;3.88;;;11.80;78.20;;;;;;5128386;27;45212;-82
2022/05/03 04:39:04;;;;;;;6.15;3.35;;;11.50;78.70;;;;;;5118721;27;47232;-82
2022/05/03 04:41:32;;;;;;;5.45;3.60;;;11.60;81.20;;;;;;5130597;27;45155;-82
2022/05/03 04:43:59;;;;;;;5.20;3.10;;;11.60;81.30;;;;;;5131528;27;45180;-82
2022/05/03 04:46:28;;;;;;;6.43;3.55;;;11.90;80.70;;;;;;5123589;27;45454;-81
2022/05/03 04:48:54;;;;;;;6.45;3.30;;;11.90;81.10;;;;;;5121477;27;47089;-81
2022/05/03 04:51:23;;;;;;;9.25;3.65;;;11.90;79.10;;;;;;5128394;27;45116;-81
2022/05/03 04:53:51;;;;;;;6.28;3.60;;;11.90;79.40;;;;;;5127322;27;45426;-81
2022/05/03 04:56:19;;;;;;;6.25;3.75;;;11.90;78.30;;;;;;5128092;27;45449;-81
2022/05/03 04:58:47;;;;;;;7.18;3.70;;;11.90;78.50;;;;;;5120902;27;45326;-82
2022/05/03 05:01:14;;;;;;;6.25;3.85;;;11.90;78.40;;;;;;5127729;27;45411;-82
2022/05/03 05:03:43;;;;;;;6.50;3.67;;;11.90;78.20;;;;;;5123337;27;45343;-82
2022/05/03 05:06:10;;;;;;;10.63;4.03;;;11.90;77.90;;;;;;5128328;27;45434;-82
2022/05/03 05:08:37;;;;;;;5.03;3.50;;;12.00;77.70;;;;;;5127020;27;46134;-82
2022/05/03 05:11:05;;;;;;;5.38;3.83;;;11.90;77.80;;;;;;5125366;27;45216;-82
2022/05/03 05:13:31;;;;;;;7.15;3.42;;;11.90;77.80;;;;;;5122773;27;45328;-82
2022/05/03 05:15:58;;;;;;;7.13;3.72;;;11.90;78.70;;;;;;5124908;27;45294;-81
2022/05/03 05:18:25;;;;;;;7.40;3.70;;;11.90;78.00;;;;;;5125083;27;45272;-82
2022/05/03 05:20:53;;;;;;;5.50;3.10;;;11.90;78.20;;;;;;5133914;27;45294;-81
2022/05/03 05:23:20;;;;;;;6.25;3.22;;;12.00;78.30;;;;;;5123352;27;45158;-82
2022/05/03 05:25:48;;;;;;;5.28;3.47;;;12.10;77.30;;;;;;5131195;27;45528;-82
2022/05/03 05:28:15;;;;;;;5.65;3.40;;;12.00;77.10;;;;;;5125448;27;45392;-82
2022/05/03 05:30:42;;;;;;;5.47;3.70;;;12.00;77.50;;;;;;5126038;27;45544;-82
2022/05/03 05:33:09;;;;;;;6.10;3.08;;;12.00;76.80;;;;;;5127133;27;45679;-81
2022/05/03 05:35:37;;;;;;;3.97;2.72;;;12.10;77.70;;;;;;5123291;27;45297;-81
2022/05/03 05:38:05;;;;;;;8.02;3.28;;;12.20;77.60;;;;;;5119019;27;45455;-81
2022/05/03 05:40:32;;;;;;;8.55;3.40;;;12.20;77.20;;;;;;5123981;27;45518;-83
2022/05/03 05:43:01;;;;;;;6.43;3.50;;;12.10;77.90;;;;;;5126515;27;45245;-81
2022/05/03 05:45:28;;;;;;;5.55;2.97;;;12.10;77.70;;;;;;5130469;27;45425;-82
2022/05/03 05:47:55;;;;;;;5.43;3.42;;;12.10;77.50;;;;;;5127654;27;46385;-83
2022/05/03 05:50:22;;;;;;;7.68;3.55;;;12.30;76.70;;;;;;5122113;27;45233;-84
2022/05/03 05:55:36;;;;;;;4.75;3.35;;;12.40;76.80;;;;;;5122981;27;45208;-80
2022/05/03 05:58:03;;;;;;;7.50;3.38;;;12.40;76.10;;;;;;5118992;27;45434;-80
2022/05/03 06:00:30;;;;;;;6.95;3.75;;;12.30;77.30;;;;;;5126392;27;45707;-80
2022/05/03 06:02:57;;;;;;;5.72;3.80;;;12.40;77.00;;;;;;5128705;27;45176;-81
2022/05/03 06:05:24;;;;;;;5.70;3.80;;;12.40;73.50;;;;;;5125687;27;45521;-82
2022/05/03 06:07:51;;;;;;;7.43;3.88;;;12.50;75.90;;;;;;5128365;27;47079;-80
2022/05/03 06:10:18;;;;;;;9.77;3.75;;;12.20;75.80;;;;;;5128214;27;45224;-80
2022/05/03 06:12:47;;;;;;;7.22;3.70;;;12.10;77.40;;;;;;5127517;27;45589;-80
2022/05/03 06:15:14;;;;;;;8.30;3.90;;;12.10;77.60;;;;;;5124521;27;45888;-80
2022/05/03 06:17:41;;;;;;;7.65;3.42;;;12.10;76.60;;;;;;5128154;27;46316;-79
2022/05/03 06:20:09;;;;;;;18.00;3.00;;;12.30;77.00;;;;;;5129785;27;45272;-77
2022/05/03 06:22:36;;;;;;;7.75;3.85;;;12.90;77.30;;;;;;5122394;27;45257;-83
2022/05/03 06:25:03;;;;;;;5.95;3.47;;;12.50;75.10;;;;;;5119530;27;45460;-83
2022/05/03 06:27:31;;;;;;;7.25;3.75;;;12.20;80.10;;;;;;5121137;27;45419;-84
2022/05/03 06:29:59;;;;;;;9.90;4.10;;;12.90;72.40;;;;;;5116481;27;45534;-84
2022/05/03 06:32:26;;;;;;;8.45;3.95;;;12.40;73.90;;;;;;5126609;27;45355;-84
2022/05/03 06:34:53;;;;;;;10.65;4.00;;;12.30;76.20;;;;;;5124034;27;45307;-84
2022/05/03 06:37:20;;;;;;;7.07;3.75;;;12.30;74.20;;;;;;5122608;27;47847;-85
2022/05/03 06:39:46;;;;;;;10.93;3.97;;;12.30;74.90;;;;;;5125515;27;45622;-85
2022/05/03 06:42:14;;;;;;;5.10;3.53;;;12.40;74.10;;;;;;5123984;27;45384;-84
2022/05/03 06:44:41;;;;;;;8.93;3.60;;;12.40;73.00;;;;;;5125677;27;45219;-85
2022/05/03 06:47:09;;;;;;;9.18;3.50;;;12.50;74.30;;;;;;5125469;27;46977;-85
2022/05/03 06:49:36;;;;;;;8.52;3.60;;;12.50;73.40;;;;;;5127714;27;45951;-85
2022/05/03 06:52:04;;;;;;;8.25;3.85;;;12.50;72.80;;;;;;5127440;27;45388;-84
2022/05/03 06:54:31;;;;;;;7.57;3.65;;;12.50;72.80;;;;;;5128996;27;45145;-85
2022/05/03 06:56:57;;;;;;;7.78;3.53;;;12.50;71.70;;;;;;5126796;27;45154;-85
2022/05/03 06:59:24;;;;;;;7.72;3.50;;;12.70;71.60;;;;;;5120344;27;45226;-85
2022/05/03 07:01:51;;;;;;;14.23;3.45;;;12.60;71.40;;;;;;5129236;27;45420;-85
2022/05/03 07:04:19;;;;;;;6.22;2.80;;;12.70;71.20;;;;;;5122474;27;45318;-84
2022/05/03 07:06:46;;;;;;;8.90;3.55;;;12.80;69.40;;;;;;5119574;27;46596;-85
2022/05/03 07:09:13;;;;;;;8.10;3.70;;;12.80;69.90;;;;;;5121972;27;45227;-84
2022/05/03 07:11:39;;;;;;;8.88;3.38;;;12.90;70.50;;;;;;5136224;27;45338;-86
2022/05/03 07:14:06;;;;;;;6.93;3.40;;;12.90;70.70;;;;;;5129062;27;45209;-84
2022/05/03 07:16:33;;;;;;;7.53;3.58;;;13.20;67.70;;;;;;5126740;27;45503;-84
2022/05/03 07:24:30;;;;;;;7.47;3.25;;;13.10;67.50;;;;;;5118005;27;45216;-84
2022/05/03 07:26:57;;;;;;;7.20;3.45;;;13.10;68.00;;;;;;5124135;27;47700;-83
2022/05/03 07:29:23;;;;;;;6.95;2.75;;;13.10;68.60;;;;;;5118503;27;45202;-85
2022/05/03 07:31:51;;;;;;;7.43;3.22;;;13.20;67.30;;;;;;5126447;27;45695;-85
2022/05/03 07:34:17;;;;;;;10.88;3.47;;;13.10;68.30;;;;;;5117502;27;45335;-85
2022/05/03 07:36:46;;;;;;;15.45;3.90;;;13.20;67.30;;;;;;5123815;27;46324;-85
2022/05/03 07:39:13;;;;;;;4.93;2.42;;;13.30;68.40;;;;;;5125797;27;45625;-84
2022/05/03 07:41:40;;;;;;;12.55;3.65;;;13.40;69.50;;;;;;5129004;27;45316;-86
2022/05/03 07:44:06;;;;;;;7.95;3.60;;;13.60;65.00;;;;;;5128839;27;45231;-87
2022/05/03 07:46:33;;;;;;;9.93;3.40;;;13.50;64.10;;;;;;5127085;27;47166;-87
2022/05/03 07:49:00;;;;;;;6.20;2.90;;;13.50;66.80;;;;;;5126017;27;45534;-87
2022/05/03 07:51:27;;;;;;;7.50;3.15;;;13.40;65.30;;;;;;5128823;27;45186;-87
2022/05/03 07:53:55;;;;;;;6.22;3.13;;;13.70;63.90;;;;;;5124696;27;45480;-87
2022/05/03 07:56:22;;;;;;;10.57;3.20;;;13.70;64.30;;;;;;5122989;27;47895;-88
2022/05/03 07:58:49;;;;;;;6.55;3.22;;;13.70;64.20;;;;;;5119758;27;45560;-87
2022/05/03 08:01:16;;;;;;;4.88;2.60;;;13.90;62.50;;;;;;5122073;27;45408;-88
2022/05/03 08:03:43;;;;;;;14.65;3.63;;;13.80;63.60;;;;;;5126980;27;45310;-86
2022/05/03 08:06:10;;;;;;;6.35;2.70;;;13.70;63.80;;;;;;5121100;27;46295;-88
2022/05/03 08:08:37;;;;;;;6.45;2.95;;;14.00;64.10;;;;;;5124253;27;45545;-88
2022/05/03 08:11:05;;;;;;;9.75;2.40;;;14.20;62.80;;;;;;5131685;27;45209;-87
2022/05/03 08:13:32;;;;;;;7.40;3.20;;;14.30;63.80;;;;;;5133236;27;45203;-87
2022/05/03 08:15:58;;;;;;;7.78;3.45;;;14.60;64.00;;;;;;5135096;27;46593;-87
2022/05/03 08:18:25;;;;;;;6.63;2.70;;;14.60;62.90;;;;;;5130122;27;45511;-87
2022/05/03 08:20:53;;;;;;;7.35;3.50;;;14.60;62.80;;;;;;5131294;27;45579;-87
2022/05/03 08:23:20;;;;;;;5.88;2.85;;;14.40;61.70;;;;;;5134593;27;45624;-87
2022/05/03 08:25:47;;;;;;;7.60;3.42;;;14.40;62.80;;;;;;5126504;27;47250;-86
2022/05/03 08:28:15;;;;;;;11.85;3.60;;;14.30;61.40;;;;;;5125590;27;45229;-85
2022/05/03 08:30:42;;;;;;;45.13;4.85;;;14.20;61.20;;;;;;5117123;27;46682;-80
2022/05/03 08:33:09;;;;;;;7.05;3.22;;;14.50;61.80;;;;;;5121626;27;45568;-82
2022/05/03 08:35:36;;;;;;;8.55;3.35;;;14.40;61.70;;;;;;5134470;27;47394;-83
2022/05/03 08:43:32;;;;;;;10.98;3.13;;;14.70;65.30;;;;;;5121833;27;45667;-79
2022/05/03 08:46:02;;;;;;;7.63;2.97;;;14.20;61.40;;;;;;5129568;27;47229;-79
2022/05/03 08:48:34;;;;;;;6.03;2.92;;;14.30;60.30;;;;;;5131960;27;45776;-79
2022/05/03 08:51:01;;;;;;;9.93;3.17;;;14.50;58.80;;;;;;5131553;27;45374;-79
2022/05/03 08:53:28;;;;;;;8.88;3.08;;;14.20;61.70;;;;;;5131145;27;45259;-79
2022/05/03 08:55:56;;;;;;;5.88;2.95;;;14.20;61.70;;;;;;5133874;27;46246;-79
2022/05/03 08:58:23;;;;;;;9.93;2.90;;;14.20;61.50;;;;;;5127512;27;45512;-79
2022/05/03 09:00:51;;;;;;;9.60;3.38;;;14.40;61.70;;;;;;5133484;27;45336;-79
2022/05/03 09:03:18;;;;;;;4.95;2.47;;;14.40;59.10;;;;;;5128629;27;45429;-79
2022/05/03 09:05:45;;;;;;;5.30;2.25;;;14.70;56.70;;;;;;5128741;27;46147;-79
2022/05/03 09:08:21;;;;;;;6.03;2.00;;;14.60;58.00;;;;;;5123950;27;45357;-79
2022/05/03 09:10:48;;;;;;;5.68;2.22;;;14.70;59.80;;;;;;5133255;27;45356;-79
2022/05/03 09:13:18;;;;;;;3.25;2.15;;;14.80;54.90;;;;;;5128119;27;45300;-79
2022/05/03 09:15:47;;;;;;;7.90;2.47;;;14.60;57.40;;;;;;5133903;27;45344;-79
2022/05/03 09:18:26;;;;;;;4.57;1.88;;;14.60;57.30;;;;;;5128582;27;45137;-79
2022/05/03 09:23:49;;;;;;;4.45;1.90;;;14.70;53.90;;;;;;5120685;27;45557;-79
2022/05/03 09:26:18;;;;;;;4.13;2.10;;;15.10;67.40;;;;;;5127285;27;46569;-80
2022/05/03 09:28:50;;;;;;;8.13;2.03;;;15.10;55.50;;;;;;5121959;27;45292;-80
2022/05/03 09:31:32;;;;;;;6.25;2.38;;;14.90;54.80;;;;;;5128438;27;45234;-79
2022/05/03 09:34:01;;;;;;;5.25;2.17;;;14.90;56.60;;;;;;5128725;27;45307;-80
2022/05/03 09:36:29;;;;;;;6.03;2.30;;;14.90;54.30;;;;;;5127829;27;45210;-79
2022/05/03 09:38:57;;;;;;;2.97;1.80;;;15.10;52.50;;;;;;5125623;27;45320;-80
2022/05/03 09:41:25;;;;;;;10.45;2.17;;;14.90;57.40;;;;;;5130762;27;45292;-80
2022/05/03 09:44:03;;;;;;;6.95;1.95;;;15.30;52.20;;;;;;5124760;27;45341;-80
2022/05/03 09:46:30;;;;;;;7.05;1.90;;;15.30;54.40;;;;;;5121679;27;46265;-79
2022/05/03 09:48:57;;;;;;;3.83;1.83;;;15.30;61.50;;;;;;5129078;27;45150;-79
2022/05/03 09:51:26;;;;;;;3.50;2.17;;;15.50;53.10;;;;;;5130728;27;45290;-79
2022/05/03 09:53:59;;;;;;;5.68;1.60;;;15.40;58.40;;;;;;5129206;27;45165;-80
2022/05/03 09:56:28;;;;;;;7.70;2.20;;;15.40;54.20;;;;;;5122628;27;45410;-80
2022/05/03 09:59:01;;;;;;;6.30;1.75;;;15.40;51.30;;;;;;5124415;27;45288;-80
2022/05/03 10:01:28;;;;;;;4.32;1.90;;;15.40;54.20;;;;;;5126803;27;45536;-81
2022/05/03 10:03:55;;;;;;;2.28;1.30;;;15.40;50.00;;;;;;5128106;27;45081;-81
2022/05/03 10:06:24;;;;;;;3.92;1.52;;;15.60;65.70;;;;;;5129278;27;46623;-80
2022/05/03 10:08:52;;;;;;;3.80;1.60;;;15.60;54.50;;;;;;5113979;27;45840;-80
2022/05/03 10:11:21;;;;;;;4.80;1.50;;;15.80;52.90;;;;;;5128847;27;45197;-80
2022/05/03 10:13:48;;;;;;;2.85;1.70;;;15.70;53.70;;;;;;5124738;27;45297;-80
2022/05/03 10:21:57;;;;;;;7.18;1.92;;;16.00;54.50;;;;;;5117497;27;45179;-82
2022/05/03 10:24:26;;;;;;;5.22;2.00;;;16.00;53.90;;;;;;5116450;27;46354;-82
2022/05/03 10:27:05;;;;;;;6.13;2.00;;;15.80;52.40;;;;;;5115499;27;47416;-82
2022/05/03 10:29:33;;;;;;;3.45;1.60;;;15.60;52.70;;;;;;5121327;27;45285;-82
2022/05/03 10:32:02;;;;;;;3.83;1.73;;;15.80;55.30;;;;;;5127172;27;45356;-81
2022/05/03 10:34:42;;;;;;;3.35;1.77;;;16.10;55.50;;;;;;5126749;27;45221;-81
2022/05/03 10:37:12;;;;;;;6.65;2.30;;;16.00;52.00;;;;;;5128928;27;47412;-81
2022/05/03 10:39:47;;;;;;;7.82;2.20;;;15.80;53.00;;;;;;5124572;27;45591;-81
2022/05/03 10:42:15;;;;;;;2.92;1.77;;;15.90;56.80;;;;;;5120819;27;45503;-81
2022/05/03 10:44:59;;;;;;;3.00;1.55;;;16.00;52.00;;;;;;5127673;27;45343;-80
2022/05/03 10:47:47;;;;;;;5.20;1.83;;;16.10;55.90;;;;;;5115925;27;45673;-81
2022/05/03 10:50:36;;;;;;;2.28;1.70;;;16.10;56.00;;;;;;5124151;27;45711;-81
2022/05/03 10:53:24;;;;;;;3.97;1.90;;;15.80;52.10;;;;;;5127275;27;45172;-81
2022/05/03 10:56:13;;;;;;;4.88;2.10;;;16.10;58.60;;;;;;5121367;27;45253;-82
2022/05/03 10:58:41;;;;;;;4.68;1.85;;;16.10;57.30;;;;;;5121468;27;45994;-81
2022/05/03 11:01:09;;;;;;;3.42;2.03;;;16.10;56.70;;;;;;5123446;27;45276;-81
2022/05/03 11:03:38;;;;;;;4.90;2.05;;;16.10;54.50;;;;;;5126018;27;45359;-81
2022/05/03 11:06:38;;;;;;;5.30;2.10;;;16.10;51.10;;;;;;5122202;27;45093;-80
2022/05/03 11:09:11;;;;;;;5.43;2.20;;;16.20;53.40;;;;;;5123266;27;46135;-80
2022/05/03 11:11:55;;;;;;;7.18;2.47;;;16.30;58.60;;;;;;5125648;27;46013;-80
2022/05/03 11:15:04;;;;;;;4.07;1.75;;;16.10;53.00;;;;;;5120069;27;45370;-80
2022/05/03 11:17:31;;;;;;;6.43;2.10;;;16.20;53.10;;;;;;5111961;27;45449;-81
2022/05/03 11:20:00;;;;;;;3.47;2.03;;;16.20;53.90;;;;;;5124547;27;45179;-80
2022/05/03 11:22:35;;;;;;;4.47;2.63;;;16.20;50.70;;;;;;5118591;27;45870;-80
2022/05/03 11:25:12;;;;;;;3.38;2.33;;;16.10;52.60;;;;;;5129145;27;45222;-80
2022/05/03 11:27:40;;;;;;;6.93;2.05;;;16.10;54.20;;;;;;5125790;27;45176;-80
2022/05/03 11:30:09;;;;;;;6.82;2.65;;;16.10;55.90;;;;;;5120515;27;47177;-80
2022/05/03 11:32:38;;;;;;;5.10;2.28;;;16.10;55.80;;;;;;5126000;27;45800;-80
2022/05/03 11:35:08;;;;;;;8.73;2.50;;;16.10;55.20;;;;;;5127649;27;45326;-80
2022/05/03 11:37:36;;;;;;;5.63;2.00;;;16.10;52.00;;;;;;5126127;27;46773;-80
2022/05/03 11:40:05;;;;;;;4.35;2.47;;;16.10;53.60;;;;;;5124008;27;48315;-79
2022/05/03 11:42:39;;;;;;;4.60;2.03;;;16.30;51.60;;;;;;5125828;27;45237;-79
2022/05/03 11:45:07;;;;;;;5.35;2.47;;;16.30;53.70;;;;;;5117226;27;45209;-80
2022/05/03 11:47:39;;;;;;;3.95;2.40;;;16.10;54.40;;;;;;5125704;27;45534;-80
2022/05/03 11:50:07;;;;;;;4.15;2.53;;;16.10;56.00;;;;;;5122639;27;47934;-79
2022/05/03 11:58:05;;;;;;;3.75;2.30;;;16.20;50.50;;;;;;5127792;27;45180;-79
2022/05/03 12:00:45;;;;;;;6.45;2.33;;;16.30;49.30;;;;;;5125335;27;46749;-79
2022/05/03 12:03:12;;;;;;;6.47;2.28;;;16.30;53.60;;;;;;5119740;27;45218;-79
2022/05/03 12:05:40;;;;;;;4.82;2.35;;;16.20;54.50;;;;;;5128868;27;45257;-80
2022/05/03 12:08:19;;;;;;;4.88;2.30;;;16.40;52.70;;;;;;5119321;27;45260;-79
2022/05/03 12:10:46;;;;;;;5.10;2.65;;;16.30;50.60;;;;;;5126061;27;46214;-79
2022/05/03 12:13:16;;;;;;;6.07;2.50;;;16.30;49.20;;;;;;5118513;27;45404;-79
2022/05/03 12:15:45;;;;;;;3.50;2.40;;;16.20;50.50;;;;;;5125250;27;45288;-80
2022/05/03 12:18:16;;;;;;;4.78;2.25;;;16.20;51.60;;;;;;5123729;27;45736;-80
2022/05/03 12:20:48;;;;;;;6.65;2.42;;;16.00;52.10;;;;;;5124562;27;46279;-80
2022/05/03 12:23:18;;;;;;;6.68;2.20;;;16.20;49.10;;;;;;5127440;27;45203;-80
2022/05/03 12:25:47;;;;;;;6.18;2.13;;;16.30;49.50;;;;;;5125761;27;45395;-80
2022/05/03 12:28:15;;;;;;;4.00;2.25;;;16.40;51.10;;;;;;5127757;27;45174;-80
2022/05/03 12:30:42;;;;;;;5.13;1.98;;;16.40;50.60;;;;;;5127274;27;46419;-80
2022/05/03 12:33:13;;;;;;;3.80;2.45;;;16.40;50.70;;;;;;5125058;27;45293;-80
2022/05/03 12:35:43;;;;;;;8.35;2.30;;;16.50;47.90;;;;;;5128560;27;45337;-79
2022/05/03 12:38:13;;;;;;;3.42;1.65;;;16.40;49.20;;;;;;5111287;27;45809;-80
2022/05/03 12:40:47;;;;;;;2.22;1.50;;;16.70;70.00;;;;;;5117211;27;45691;-79
2022/05/03 12:43:17;;;;;;;5.43;2.35;;;16.70;51.00;;;;;;5120378;27;45151;-80
2022/05/03 12:45:59;;;;;;;4.03;2.08;;;16.60;50.80;;;;;;5112404;27;45311;-80
2022/05/03 12:48:27;;;;;;;3.83;2.15;;;16.50;48.20;;;;;;5121233;27;45397;-80
2022/05/03 12:50:55;;;;;;;3.88;1.70;;;16.50;47.90;;;;;;5126784;27;46474;-79
2022/05/03 12:53:26;;;;;;;2.63;1.80;;;16.50;50.70;;;;;;5118991;27;45298;-79
2022/05/03 12:55:54;;;;;;;3.53;2.00;;;16.60;51.60;;;;;;5121158;27;45173;-79
2022/05/03 12:58:27;;;;;;;9.18;2.53;;;16.70;47.80;;;;;;5120452;27;45350;-79
2022/05/03 13:00:57;;;;;;;3.50;1.73;;;16.60;47.70;;;;;;5129060;27;48215;-79
2022/05/03 13:03:24;;;;;;;5.55;2.13;;;16.60;48.10;;;;;;5127655;27;45356;-79
2022/05/03 13:05:51;;;;;;;3.97;2.17;;;16.60;47.50;;;;;;5124688;27;45610;-79
2022/05/03 13:08:19;;;;;;;3.63;1.92;;;16.60;48.20;;;;;;5122377;27;46110;-78
2022/05/03 13:10:46;;;;;;;3.60;2.17;;;16.60;47.40;;;;;;5124226;27;47237;-79
2022/05/03 13:13:13;;;;;;;3.17;1.80;;;16.60;47.90;;;;;;5128891;27;45268;-79
2022/05/03 13:15:41;;;;;;;5.07;2.03;;;16.70;49.20;;;;;;5119656;27;45455;-78
2022/05/03 13:18:08;;;;;;;3.33;1.92;;;16.80;50.50;;;;;;5123504;27;45455;-78
2022/05/03 13:20:35;;;;;;;4.50;1.35;;;16.80;48.90;;;;;;5139566;27;45286;-78
2022/05/03 13:23:01;;;;;;;2.58;1.80;;;16.80;49.60;;;;;;5128428;27;45192;-78
2022/05/03 13:25:29;;;;;;;4.13;1.80;;;16.90;50.50;;;;;;5124824;27;45280;-79
2022/05/03 13:27:56;;;;;;;2.38;1.63;;;16.80;46.40;;;;;;5122974;27;45250;-79
2022/05/03 13:30:22;;;;;;;2.50;1.73;;;16.80;46.90;;;;;;5120735;27;47946;-79
2022/05/03 13:32:51;;;;;;;3.80;1.65;;;16.80;51.10;;;;;;5124543;27;45475;-78
2022/05/03 13:40:28;;;;;;;5.38;1.98;;;16.90;46.20;;;;;;5125139;27;45228;-79